Time;durP1;ratioP1;P1;durP2;ratioP2;P2;SDS_P1;SDS_P2;PMS_P1;PMS_P2;Temp;Humidity;BMP_temperature;BMP_pressure;BME280_temperature;BME280_humidity;BME280_pressure;Samples;Min_cycle;Max_cycle;Signal;HPM_P1;HPM_P2
2023/06/15 00:00:13;;;;;;;0.20;0.20;;;;;;;14.73;64.31;97629.38;5027669;28;20045;-71
2023/06/15 00:02:42;;;;;;;0.10;0.10;;;;;;;14.57;64.27;97628.06;5026923;28;20468;-71
2023/06/15 00:05:11;;;;;;;0.22;0.22;;;;;;;14.39;64.83;97628.00;5029515;28;20037;-71
2023/06/15 00:07:39;;;;;;;0.10;0.10;;;;;;;14.14;65.96;97629.78;5030988;28;20041;-71
2023/06/15 00:10:07;;;;;;;0.10;0.10;;;;;;;14.05;66.06;97626.53;5027937;28;20054;-71
2023/06/15 00:12:35;;;;;;;0.10;0.10;;;;;;;14.02;66.17;97629.66;5026961;28;20520;-72
2023/06/15 00:15:03;;;;;;;0.10;0.10;;;;;;;14.04;66.23;97637.47;5028770;28;20037;-71
2023/06/15 00:17:31;;;;;;;0.10;0.10;;;;;;;14.00;66.31;97636.28;5030762;28;20064;-70
2023/06/15 00:20:00;;;;;;;0.10;0.10;;;;;;;13.89;66.44;97624.38;5030172;28;20080;-70
2023/06/15 00:22:29;;;;;;;0.10;0.10;;;;;;;13.82;66.73;97627.06;5030320;28;20048;-70
2023/06/15 00:24:57;;;;;;;0.10;0.10;;;;;;;13.77;66.77;97624.22;5028128;28;20041;-70
2023/06/15 00:27:24;;;;;;;0.10;0.10;;;;;;;13.64;67.25;97628.81;5030620;28;20045;-71
2023/06/15 00:29:52;;;;;;;0.08;0.08;;;;;;;13.71;66.78;97626.91;5027706;28;20044;-70
2023/06/15 00:32:19;;;;;;;0.10;0.10;;;;;;;13.65;67.02;97625.09;5010188;28;20069;-70
2023/06/15 00:34:47;;;;;;;0.10;0.10;;;;;;;13.59;67.06;97632.97;5029861;28;20060;-71
2023/06/15 00:37:15;;;;;;;0.17;0.17;;;;;;;13.70;66.83;97625.31;5026526;28;20041;-71
2023/06/15 00:39:44;;;;;;;0.20;0.20;;;;;;;13.60;67.02;97625.72;5025902;28;20034;-70
2023/06/15 00:42:11;;;;;;;0.20;0.20;;;;;;;13.59;67.13;97627.63;5023857;28;20108;-70
2023/06/15 00:44:39;;;;;;;0.10;0.10;;;;;;;13.56;67.28;97638.75;5006275;28;20096;-71
2023/06/15 00:47:09;;;;;;;0.17;0.17;;;;;;;13.53;67.24;97628.44;5011554;28;20059;-71
2023/06/15 00:49:44;;;;;;;0.13;0.13;;;;;;;13.69;66.82;97629.00;5006661;28;20084;-71
2023/06/15 00:52:13;;;;;;;0.15;0.15;;;;;;;13.62;66.93;97631.72;5026232;28;20485;-71
2023/06/15 00:54:43;;;;;;;0.10;0.10;;;;;;;13.52;67.38;97632.16;5029708;28;20049;-71
2023/06/15 00:57:12;;;;;;;0.15;0.15;;;;;;;13.46;67.47;97637.56;5015967;28;20053;-72
2023/06/15 00:59:40;;;;;;;0.10;0.10;;;;;;;13.41;67.59;97640.88;5015605;28;20412;-72
2023/06/15 01:02:12;;;;;;;0.20;0.20;;;;;;;13.36;67.67;97632.66;5029688;28;20037;-71
2023/06/15 01:04:40;;;;;;;0.10;0.10;;;;;;;13.32;68.04;97630.59;5033771;28;20136;-72
2023/06/15 01:07:10;;;;;;;0.10;0.10;;;;;;;13.31;68.02;97627.06;5015739;28;20137;-72
2023/06/15 01:09:41;;;;;;;0.10;0.10;;;;;;;13.25;68.00;97627.09;5016008;28;20037;-71
2023/06/15 01:12:12;;;;;;;0.10;0.10;;;;;;;13.20;68.49;97630.41;5015382;28;20041;-71
2023/06/15 01:14:40;;;;;;;0.10;0.10;;;;;;;13.23;68.21;97620.09;5016436;28;20513;-71
2023/06/15 01:17:09;;;;;;;0.10;0.10;;;;;;;13.35;67.56;97633.69;5031312;28;20037;-71
2023/06/15 01:19:42;;;;;;;0.10;0.10;;;;;;;13.26;67.97;97629.59;5034736;28;20428;-71
2023/06/15 01:22:16;;;;;;;0.10;0.10;;;;;;;13.46;67.38;97633.03;5031367;28;20077;-73
2023/06/15 01:24:46;;;;;;;0.20;0.20;;;;;;;13.32;67.89;97634.09;5013563;28;20091;-72
2023/06/15 01:27:15;;;;;;;0.03;0.03;;;;;;;13.25;68.09;97627.94;5007777;28;20054;-72
2023/06/15 01:29:42;;;;;;;0.10;0.10;;;;;;;13.37;67.56;97626.25;5030684;28;20052;-72
2023/06/15 01:32:10;;;;;;;0.13;0.13;;;;;;;13.15;68.22;97627.56;5032635;28;20120;-72
2023/06/15 01:34:38;;;;;;;0.10;0.10;;;;;;;12.82;69.08;97620.34;5012951;28;20053;-72
2023/06/15 01:37:06;;;;;;;0.10;0.10;;;;;;;12.70;69.68;97619.34;5014291;28;20045;-72
2023/06/15 01:39:33;;;;;;;0.10;0.10;;;;;;;12.69;69.15;97617.69;5032224;28;20115;-72
2023/06/15 01:42:02;;;;;;;0.10;0.10;;;;;;;12.65;69.07;97616.47;5030843;28;20071;-72
2023/06/15 01:44:33;;;;;;;0.10;0.10;;;;;;;12.71;68.78;97615.63;5009568;28;20141;-71
2023/06/15 01:47:01;;;;;;;0.10;0.10;;;;;;;12.61;69.40;97619.75;5031818;28;20056;-71
2023/06/15 01:49:29;;;;;;;0.10;0.10;;;;;;;12.66;68.95;97615.44;5033690;28;20139;-71
2023/06/15 01:51:56;;;;;;;0.10;0.10;;;;;;;12.61;69.26;97617.91;5011324;28;20085;-71
2023/06/15 01:54:25;;;;;;;0.10;0.10;;;;;;;12.61;69.30;97617.09;5029217;28;20045;-72
2023/06/15 01:56:53;;;;;;;0.20;0.20;;;;;;;12.65;69.18;97610.28;5013603;28;20144;-72
2023/06/15 01:59:21;;;;;;;0.20;0.20;;;;;;;12.91;68.19;97612.09;5014695;28;20480;-72
2023/06/15 02:01:50;;;;;;;0.20;0.20;;;;;;;12.78;68.34;97608.41;5029495;28;20120;-72
2023/06/15 02:04:17;;;;;;;0.10;0.10;;;;;;;12.76;68.19;97604.31;5031656;28;20038;-71
2023/06/15 02:06:47;;;;;;;0.10;0.10;;;;;;;12.62;68.88;97608.84;5013070;28;20041;-71
2023/06/15 02:09:16;;;;;;;0.15;0.15;;;;;;;12.39;69.18;97606.59;5019317;28;20569;-71
2023/06/15 02:11:45;;;;;;;0.15;0.15;;;;;;;12.18;70.17;97605.94;5029067;28;20108;-72
2023/06/15 02:14:17;;;;;;;0.10;0.10;;;;;;;12.18;69.99;97603.28;5012264;28;20045;-71
2023/06/15 02:16:49;;;;;;;0.25;0.25;;;;;;;12.04;70.51;97599.78;5001578;28;20052;-71
2023/06/15 02:19:20;;;;;;;0.10;0.10;;;;;;;12.03;70.55;97604.31;5032828;28;20095;-70
2023/06/15 02:21:49;;;;;;;0.10;0.10;;;;;;;12.00;70.53;97602.03;5014492;28;20060;-70
2023/06/15 02:24:17;;;;;;;0.10;0.10;;;;;;;11.79;71.32;97602.19;5012814;28;20099;-73
2023/06/15 02:26:46;;;;;;;0.00;0.00;;;;;;;11.76;71.71;97605.25;5030586;28;20444;-70
2023/06/15 02:29:14;;;;;;;0.10;0.10;;;;;;;11.75;71.42;97604.44;5029698;28;20037;-71
2023/06/15 02:31:41;;;;;;;0.20;0.20;;;;;;;11.72;71.62;97607.50;5032116;28;20033;-70
2023/06/15 02:34:10;;;;;;;0.10;0.10;;;;;;;11.80;71.03;97605.69;5029685;28;20053;-70
2023/06/15 02:36:39;;;;;;;0.10;0.10;;;;;;;11.82;70.93;97593.75;5031293;28;20099;-71
2023/06/15 02:39:07;;;;;;;0.03;0.03;;;;;;;11.81;70.74;97599.31;5012023;28;20513;-70
2023/06/15 02:41:35;;;;;;;0.10;0.10;;;;;;;11.73;70.95;97598.41;5026728;28;20112;-71
2023/06/15 02:44:03;;;;;;;0.10;0.10;;;;;;;11.72;71.08;97607.50;5010616;28;20053;-72
2023/06/15 02:46:32;;;;;;;0.10;0.10;;;;;;;11.71;71.19;97599.66;5013770;28;20049;-72
2023/06/15 02:49:00;;;;;;;0.10;0.10;;;;;;;11.68;71.39;97600.06;5013537;28;20051;-71
2023/06/15 02:51:30;;;;;;;0.10;0.10;;;;;;;11.73;71.46;97611.78;5014233;28;20046;-72
2023/06/15 02:53:59;;;;;;;0.10;0.10;;;;;;;11.84;70.74;97605.06;5013969;28;20592;-77
2023/06/15 02:56:29;;;;;;;0.10;0.10;;;;;;;11.67;71.17;97598.41;5013798;28;20509;-75
2023/06/15 02:59:00;;;;;;;0.13;0.13;;;;;;;11.78;70.84;97608.56;5011851;28;20083;-73
2023/06/15 03:01:38;;;;;;;0.20;0.20;;;;;;;11.73;70.62;97608.31;5011492;28;20049;-74
2023/06/15 03:04:14;;;;;;;0.20;0.20;;;;;;;11.56;71.68;97609.69;5030493;28;20045;-73
2023/06/15 03:06:49;;;;;;;0.20;0.20;;;;;;;11.55;71.91;97616.88;5030771;28;20088;-72
2023/06/15 03:09:22;;;;;;;0.20;0.20;;;;;;;11.52;72.03;97614.63;5024266;28;20048;-74
2023/06/15 03:11:51;;;;;;;0.20;0.20;;;;;;;11.63;71.39;97618.53;5032023;28;20128;-74
2023/06/15 03:14:24;;;;;;;0.10;0.10;;;;;;;11.64;71.15;97612.16;5015787;28;20056;-73
2023/06/15 03:16:54;;;;;;;0.10;0.10;;;;;;;11.69;71.34;97615.91;5029672;28;20041;-72
2023/06/15 03:19:27;;;;;;;0.10;0.10;;;;;;;11.70;70.49;97614.06;5031712;28;20052;-73
2023/06/15 03:21:57;;;;;;;0.20;0.20;;;;;;;11.65;70.94;97627.19;5011722;28;20041;-73
2023/06/15 03:24:26;;;;;;;0.17;0.17;;;;;;;11.65;70.60;97624.50;5013768;28;20060;-74
2023/06/15 03:26:57;;;;;;;0.28;0.28;;;;;;;11.77;70.13;97629.13;5013938;28;20049;-74
2023/06/15 03:29:26;;;;;;;0.10;0.10;;;;;;;11.66;70.58;97626.16;5014959;28;20043;-73
2023/06/15 03:31:54;;;;;;;0.15;0.15;;;;;;;11.68;70.53;97635.66;5020432;28;20053;-73
2023/06/15 03:34:22;;;;;;;0.15;0.15;;;;;;;11.69;71.08;97634.63;5014035;28;20068;-73
2023/06/15 03:36:51;;;;;;;0.20;0.20;;;;;;;11.57;70.74;97641.56;5030828;28;20039;-73
2023/06/15 03:39:20;;;;;;;0.10;0.10;;;;;;;11.49;71.03;97638.25;5030444;28;20465;-72
2023/06/15 03:41:48;;;;;;;0.25;0.25;;;;;;;11.44;71.09;97638.00;5013568;28;20420;-74
2023/06/15 03:44:16;;;;;;;0.20;0.20;;;;;;;11.47;70.85;97643.78;5008797;28;20045;-74
2023/06/15 03:46:49;;;;;;;0.10;0.10;;;;;;;11.39;70.88;97642.13;5013011;28;20056;-74
2023/06/15 03:49:16;;;;;;;0.10;0.10;;;;;;;11.56;71.02;97645.25;5025531;28;20156;-73
2023/06/15 03:51:45;;;;;;;0.20;0.20;;;;;;;11.56;70.38;97642.59;5012598;28;20520;-72
2023/06/15 03:54:13;;;;;;;0.10;0.10;;;;;;;11.45;70.89;97645.81;5022990;28;20041;-73
2023/06/15 03:56:42;;;;;;;0.15;0.15;;;;;;;11.47;70.73;97641.13;5026145;28;20124;-73
2023/06/15 03:59:10;;;;;;;0.20;0.20;;;;;;;11.43;71.27;97647.03;5010151;28;20041;-73
2023/06/15 04:01:38;;;;;;;0.20;0.20;;;;;;;11.28;71.54;97641.84;5006919;28;20150;-74
2023/06/15 04:04:06;;;;;;;0.20;0.20;;;;;;;11.26;71.75;97658.06;5029227;28;20029;-74
2023/06/15 04:06:35;;;;;;;0.10;0.10;;;;;;;11.38;71.68;97653.81;5029814;28;20114;-74
2023/06/15 04:09:05;;;;;;;0.10;0.10;;;;;;;11.46;71.40;97652.81;5030225;28;20096;-75
2023/06/15 04:11:32;;;;;;;0.17;0.17;;;;;;;11.37;71.64;97648.66;5027290;28;20042;-75
2023/06/15 04:14:01;;;;;;;0.10;0.10;;;;;;;11.54;71.48;97651.81;5011573;28;20452;-74
2023/06/15 04:16:29;;;;;;;0.20;0.20;;;;;;;11.63;71.24;97648.78;5027668;28;20041;-74
2023/06/15 04:18:57;;;;;;;0.00;0.00;;;;;;;11.59;71.25;97657.41;5013236;28;20076;-74
2023/06/15 04:21:24;;;;;;;0.10;0.10;;;;;;;11.67;71.14;97658.06;5008249;28;20053;-75
2023/06/15 04:23:52;;;;;;;0.10;0.10;;;;;;;11.80;70.80;97651.13;5025589;28;20558;-74
2023/06/15 04:26:20;;;;;;;0.20;0.20;;;;;;;11.76;70.82;97664.06;5027059;28;20100;-75
2023/06/15 04:28:49;;;;;;;0.10;0.10;;;;;;;11.71;70.89;97666.50;5011279;28;20130;-73
2023/06/15 04:31:21;;;;;;;0.10;0.10;;;;;;;11.64;71.03;97669.13;5040147;28;20088;-73
2023/06/15 04:33:58;;;;;;;0.10;0.10;;;;;;;11.67;71.36;97673.28;5006758;28;20049;-73
2023/06/15 04:36:31;;;;;;;0.10;0.10;;;;;;;11.67;71.14;97663.41;5014116;28;20496;-73
2023/06/15 04:39:00;;;;;;;0.20;0.20;;;;;;;11.74;71.01;97669.59;5015325;28;20042;-73
2023/06/15 04:41:29;;;;;;;0.10;0.10;;;;;;;11.79;70.93;97673.56;5016620;28;20068;-73
2023/06/15 04:44:02;;;;;;;0.10;0.10;;;;;;;11.85;70.68;97678.09;5029682;28;20045;-74
2023/06/15 04:46:32;;;;;;;0.10;0.10;;;;;;;11.82;70.82;97676.66;5015765;28;20073;-73
2023/06/15 04:49:00;;;;;;;0.10;0.10;;;;;;;11.90;70.67;97673.81;5013328;28;20083;-74
2023/06/15 04:51:30;;;;;;;0.15;0.15;;;;;;;11.81;70.82;97675.00;5025345;28;20049;-75
2023/06/15 04:53:57;;;;;;;0.13;0.13;;;;;;;11.94;70.78;97669.69;5033434;28;20099;-74
2023/06/15 04:56:26;;;;;;;0.17;0.17;;;;;;;12.00;70.63;97668.06;5014970;28;20061;-74
2023/06/15 04:58:53;;;;;;;0.10;0.10;;;;;;;12.08;70.52;97668.72;5033843;28;20047;-74
2023/06/15 05:01:21;;;;;;;0.10;0.10;;;;;;;12.19;70.55;97675.31;5033415;28;20116;-74
2023/06/15 05:03:53;;;;;;;0.13;0.13;;;;;;;12.20;70.33;97670.78;5016025;28;20401;-74
2023/06/15 05:06:21;;;;;;;0.20;0.20;;;;;;;12.10;71.30;97669.34;5009367;28;20038;-72
2023/06/15 05:08:49;;;;;;;0.20;0.20;;;;;;;12.19;70.86;97672.66;5016769;28;20047;-74
2023/06/15 05:11:16;;;;;;;0.10;0.10;;;;;;;12.17;71.07;97674.69;5013525;28;20056;-74
2023/06/15 05:13:45;;;;;;;0.10;0.10;;;;;;;12.27;70.98;97685.00;5032791;28;20041;-74
2023/06/15 05:16:13;;;;;;;0.20;0.20;;;;;;;12.42;70.82;97681.13;5023557;28;20090;-75
2023/06/15 05:18:42;;;;;;;0.10;0.10;;;;;;;12.59;70.38;97684.22;5031442;28;20060;-75
2023/06/15 05:21:12;;;;;;;0.20;0.20;;;;;;;12.65;69.92;97678.06;5013327;28;20196;-75
2023/06/15 05:23:40;;;;;;;0.10;0.10;;;;;;;12.79;69.55;97685.06;5011736;28;20046;-75
2023/06/15 05:26:10;;;;;;;0.10;0.10;;;;;;;12.84;69.51;97681.75;5015175;28;20041;-75
2023/06/15 05:28:56;;;;;;;0.10;0.10;;;;;;;12.95;69.33;97683.00;5012439;28;20045;-75
2023/06/15 05:31:24;;;;;;;0.10;0.10;;;;;;;13.12;69.00;97687.72;5015214;28;20061;-75
2023/06/15 05:33:53;;;;;;;0.10;0.10;;;;;;;13.12;68.95;97689.56;5011134;28;20456;-75
2023/06/15 05:36:25;;;;;;;0.20;0.20;;;;;;;13.18;68.97;97686.09;5031315;28;20059;-75
2023/06/15 05:39:13;;;;;;;0.20;0.20;;;;;;;13.21;68.86;97691.03;5028418;28;20632;-74
2023/06/15 05:41:40;;;;;;;0.10;0.10;;;;;;;13.18;69.25;97689.56;5024077;28;20069;-74
2023/06/15 05:44:10;;;;;;;0.10;0.10;;;;;;;13.26;69.24;97693.91;5015182;28;20037;-74
2023/06/15 05:46:38;;;;;;;0.20;0.20;;;;;;;13.38;68.70;97692.25;5023538;28;20045;-75
2023/06/15 05:49:05;;;;;;;0.20;0.20;;;;;;;13.19;69.44;97691.22;5023341;28;20042;-74
2023/06/15 05:51:34;;;;;;;0.13;0.13;;;;;;;13.34;69.42;97699.06;5027763;28;20037;-74
2023/06/15 05:54:02;;;;;;;0.10;0.10;;;;;;;13.48;68.71;97692.63;5013212;28;20049;-74
2023/06/15 05:56:30;;;;;;;0.10;0.10;;;;;;;13.58;68.23;97692.19;5030467;28;20045;-74
2023/06/15 05:58:59;;;;;;;0.10;0.10;;;;;;;13.76;67.74;97703.06;5014318;28;20065;-74
2023/06/15 06:01:27;;;;;;;0.10;0.10;;;;;;;13.72;67.65;97701.81;5028996;28;20041;-75
2023/06/15 06:03:55;;;;;;;0.20;0.20;;;;;;;13.69;68.26;97698.75;5014273;28;20050;-74
2023/06/15 06:06:25;;;;;;;0.10;0.10;;;;;;;13.84;67.60;97708.19;5008566;28;20092;-74
2023/06/15 06:08:54;;;;;;;0.10;0.10;;;;;;;14.06;67.03;97710.56;5032597;28;20049;-74
2023/06/15 06:11:22;;;;;;;0.10;0.10;;;;;;;14.15;66.69;97707.41;5029680;28;20033;-75
2023/06/15 06:13:52;;;;;;;0.10;0.10;;;;;;;14.27;66.36;97705.72;5032073;28;20497;-74
2023/06/15 06:16:20;;;;;;;0.10;0.10;;;;;;;14.37;65.89;97713.28;5010181;28;20048;-73
2023/06/15 06:18:48;;;;;;;0.10;0.10;;;;;;;14.48;65.40;97709.94;5013147;28;20052;-73
2023/06/15 06:21:16;;;;;;;0.10;0.10;;;;;;;14.44;65.88;97707.91;5028768;28;20060;-74
2023/06/15 06:23:45;;;;;;;0.20;0.20;;;;;;;14.54;65.63;97711.75;5011248;28;20128;-74
2023/06/15 06:26:14;;;;;;;0.13;0.13;;;;;;;14.59;65.75;97703.06;5004228;28;20592;-74
2023/06/15 06:28:41;;;;;;;0.20;0.20;;;;;;;14.85;65.46;97708.22;5030820;28;20134;-74
2023/06/15 06:31:09;;;;;;;0.10;0.10;;;;;;;15.04;64.60;97701.06;5031682;28;20049;-74
2023/06/15 06:33:38;;;;;;;0.10;0.10;;;;;;;15.19;64.31;97700.72;5028507;28;20065;-74
2023/06/15 06:36:08;;;;;;;0.10;0.10;;;;;;;15.31;63.97;97697.06;5031059;28;20103;-74
2023/06/15 06:38:36;;;;;;;0.13;0.13;;;;;;;15.40;63.49;97702.97;5031962;28;20041;-74
2023/06/15 06:41:21;;;;;;;0.08;0.08;;;;;;;15.54;63.26;97688.38;5023911;28;20470;-74
2023/06/15 06:43:49;;;;;;;0.28;0.28;;;;;;;15.64;63.48;97690.56;5029883;28;20045;-75
2023/06/15 06:46:16;;;;;;;0.10;0.10;;;;;;;15.75;62.89;97687.13;5031804;28;20129;-74
2023/06/15 06:48:44;;;;;;;0.10;0.10;;;;;;;15.84;62.87;97685.75;5029587;28;20052;-75
2023/06/15 06:51:11;;;;;;;0.10;0.10;;;;;;;16.06;61.98;97694.19;5032142;28;20075;-74
2023/06/15 06:53:39;;;;;;;0.10;0.10;;;;;;;16.10;61.84;97681.91;5031354;28;20041;-75
2023/06/15 06:56:07;;;;;;;0.10;0.10;;;;;;;16.26;61.85;97689.34;5026856;28;20051;-74
2023/06/15 06:58:36;;;;;;;0.10;0.10;;;;;;;16.36;61.34;97683.41;5031330;28;20120;-75
2023/06/15 07:01:03;;;;;;;0.10;0.10;;;;;;;16.52;61.33;97691.66;5030043;28;20045;-75
2023/06/15 07:03:31;;;;;;;0.13;0.13;;;;;;;16.61;61.26;97694.06;5032184;28;20041;-75
2023/06/15 07:05:59;;;;;;;0.00;0.00;;;;;;;16.80;60.71;97690.25;5025387;28;20460;-75
2023/06/15 07:08:27;;;;;;;0.10;0.10;;;;;;;16.91;59.95;97694.03;5031480;28;20073;-75
2023/06/15 07:10:54;;;;;;;0.15;0.15;;;;;;;17.10;60.59;97693.69;5011751;28;20049;-75
2023/06/15 07:13:22;;;;;;;0.13;0.13;;;;;;;17.36;58.95;97686.16;5030651;28;20041;-74
2023/06/15 07:15:54;;;;;;;0.10;0.10;;;;;;;17.52;59.11;97697.09;5030777;28;20036;-73
2023/06/15 07:18:21;;;;;;;0.10;0.10;;;;;;;17.65;58.55;97687.13;5026665;28;20037;-73
2023/06/15 07:20:53;;;;;;;0.13;0.13;;;;;;;17.83;59.02;97690.50;5031435;28;20144;-74
2023/06/15 07:23:21;;;;;;;0.03;0.03;;;;;;;18.04;58.42;97688.22;5024764;28;20046;-73
2023/06/15 07:25:49;;;;;;;0.10;0.10;;;;;;;17.91;57.78;97690.13;5012885;28;20041;-73
2023/06/15 07:28:17;;;;;;;0.10;0.10;;;;;;;18.19;57.78;97688.50;5028218;28;20042;-73
2023/06/15 07:30:46;;;;;;;0.10;0.10;;;;;;;18.38;56.56;97678.31;5030578;28;20029;-73
2023/06/15 07:33:15;;;;;;;0.10;0.10;;;;;;;18.59;56.17;97683.03;5010286;28;20132;-73
2023/06/15 07:35:42;;;;;;;0.10;0.10;;;;;;;18.79;56.81;97675.28;5028416;28;20044;-73
2023/06/15 07:38:10;;;;;;;0.10;0.10;;;;;;;19.02;55.85;97680.53;5028264;28;20122;-73
2023/06/15 07:40:38;;;;;;;0.32;0.32;;;;;;;19.26;54.39;97685.78;5026812;28;20041;-73
2023/06/15 07:43:05;;;;;;;0.10;0.10;;;;;;;19.42;53.73;97677.63;5030815;28;20552;-74
2023/06/15 07:45:33;;;;;;;0.10;0.10;;;;;;;19.51;52.59;97688.09;5027358;28;20089;-73
2023/06/15 07:48:01;;;;;;;0.08;0.08;;;;;;;19.46;52.28;97690.69;5029460;28;20076;-73
2023/06/15 07:50:30;;;;;;;0.05;0.05;;;;;;;19.39;52.63;97688.16;5030928;28;20527;-73
2023/06/15 07:52:57;;;;;;;0.10;0.10;;;;;;;19.62;52.32;97681.75;5033828;28;20045;-73
2023/06/15 07:55:25;;;;;;;0.08;0.08;;;;;;;19.91;50.85;97680.50;5039632;28;20045;-73
2023/06/15 07:57:53;;;;;;;0.10;0.10;;;;;;;20.18;50.66;97683.25;5042305;28;20221;-73
2023/06/15 08:00:21;;;;;;;0.10;0.10;;;;;;;20.41;50.08;97684.88;5020048;28;20041;-73
2023/06/15 08:02:58;;;;;;;0.00;0.00;;;;;;;20.56;49.26;97684.25;5036202;28;20053;-73
2023/06/15 08:05:26;;;;;;;0.10;0.10;;;;;;;20.79;48.53;97678.47;5030830;28;20501;-73
2023/06/15 08:07:55;;;;;;;0.10;0.10;;;;;;;20.85;47.23;97678.28;5030525;28;20092;-74
2023/06/15 08:10:23;;;;;;;0.10;0.10;;;;;;;21.01;47.36;97672.97;5031700;28;20099;-74
2023/06/15 08:12:51;;;;;;;0.00;0.00;;;;;;;21.33;44.91;97687.34;5027635;28;20163;-73
2023/06/15 08:15:18;;;;;;;0.00;0.00;;;;;;;21.54;43.70;97682.88;5030682;28;20034;-73
2023/06/15 08:17:46;;;;;;;0.13;0.13;;;;;;;21.72;43.65;97670.72;5027449;28;20116;-73
2023/06/15 08:20:15;;;;;;;0.05;0.05;;;;;;;21.88;42.60;97672.47;5029939;28;20045;-73
2023/06/15 08:22:43;;;;;;;0.10;0.10;;;;;;;22.07;41.22;97676.38;5026428;28;20042;-73
2023/06/15 08:25:12;;;;;;;0.08;0.08;;;;;;;22.23;41.37;97672.59;5027590;28;20120;-73
2023/06/15 08:27:40;;;;;;;0.10;0.10;;;;;;;22.40;41.27;97675.13;5030001;28;20045;-73
2023/06/15 08:30:09;;;;;;;0.10;0.10;;;;;;;22.03;40.65;97672.53;5026108;28;20045;-74
2023/06/15 08:32:37;;;;;;;0.00;0.00;;;;;;;22.37;41.70;97672.09;5030754;28;20109;-73
2023/06/15 08:35:06;;;;;;;0.05;0.05;;;;;;;22.66;39.79;97665.91;5024259;28;20054;-73
2023/06/15 08:37:35;;;;;;;0.10;0.10;;;;;;;22.89;40.06;97661.88;5031054;28;20045;-73
2023/06/15 08:40:06;;;;;;;0.00;0.00;;;;;;;23.04;38.66;97667.34;5023661;28;20072;-74
2023/06/15 08:42:35;;;;;;;0.10;0.10;;;;;;;22.74;38.61;97661.03;5025154;28;20396;-74
2023/06/15 08:45:05;;;;;;;0.05;0.05;;;;;;;23.14;39.09;97660.25;5028820;28;20055;-74
2023/06/15 08:47:34;;;;;;;0.00;0.00;;;;;;;23.18;37.85;97664.03;5029151;28;20046;-73
2023/06/15 08:50:03;;;;;;;0.10;0.10;;;;;;;23.18;38.68;97661.31;5031824;28;20045;-73
2023/06/15 08:52:34;;;;;;;0.10;0.10;;;;;;;23.12;38.30;97659.69;5031974;28;20053;-74
2023/06/15 08:55:03;;;;;;;0.10;0.10;;;;;;;23.03;39.57;97654.81;5024636;28;20038;-75
2023/06/15 08:57:32;;;;;;;0.03;0.03;;;;;;;23.29;38.37;97660.22;5027292;28;20041;-74
2023/06/15 09:00:01;;;;;;;0.00;0.00;;;;;;;23.24;38.23;97654.78;5025022;28;20055;-74
2023/06/15 09:02:30;;;;;;;0.00;0.00;;;;;;;23.42;37.94;97657.75;5030394;28;20041;-74
2023/06/15 09:04:58;;;;;;;0.00;0.00;;;;;;;23.60;37.52;97655.53;5024887;28;20049;-75
2023/06/15 09:07:25;;;;;;;0.10;0.10;;;;;;;23.08;37.02;97651.25;5026987;28;20042;-75
2023/06/15 09:10:12;;;;;;;0.10;0.10;;;;;;;23.49;37.59;97662.91;5029980;28;20041;-75
2023/06/15 09:12:44;;;;;;;0.00;0.00;;;;;;;23.85;36.56;97669.13;5026847;28;20069;-74
2023/06/15 09:15:18;;;;;;;0.10;0.10;;;;;;;23.53;35.81;97661.28;5028383;28;20545;-74
2023/06/15 09:17:47;;;;;;;0.03;0.03;;;;;;;23.65;36.08;97659.09;5029319;28;20051;-73
2023/06/15 09:20:15;;;;;;;0.10;0.10;;;;;;;23.81;35.01;97661.75;5032274;28;20386;-74
2023/06/15 09:22:45;;;;;;;0.10;0.10;;;;;;;23.74;34.98;97654.69;5028859;28;20045;-75
2023/06/15 09:25:16;;;;;;;0.05;0.05;;;;;;;23.86;35.50;97653.56;5030277;28;20068;-75
2023/06/15 09:27:54;;;;;;;0.00;0.00;;;;;;;24.04;35.87;97655.66;5033999;28;20049;-75
2023/06/15 09:30:23;;;;;;;0.00;0.00;;;;;;;24.01;35.39;97651.59;5030500;28;20531;-75
2023/06/15 09:32:51;;;;;;;0.10;0.10;;;;;;;23.75;36.01;97653.59;5033090;28;20406;-75
2023/06/15 09:35:18;;;;;;;0.00;0.00;;;;;;;24.08;35.46;97648.56;5027583;28;20096;-75
2023/06/15 09:37:52;;;;;;;0.00;0.00;;;;;;;24.37;35.14;97635.88;5033638;28;20045;-74
2023/06/15 09:40:20;;;;;;;0.00;0.00;;;;;;;24.46;35.27;97645.09;5022921;28;20053;-75
2023/06/15 09:42:50;;;;;;;0.00;0.00;;;;;;;24.49;34.90;97638.28;5033852;28;20060;-74
2023/06/15 09:45:18;;;;;;;0.00;0.00;;;;;;;24.75;34.02;97636.16;5028039;28;20052;-75
2023/06/15 09:47:47;;;;;;;0.00;0.00;;;;;;;24.71;34.88;97640.56;5034327;28;20045;-74
2023/06/15 09:50:14;;;;;;;0.10;0.10;;;;;;;24.46;34.73;97631.47;5032303;28;20068;-74
2023/06/15 09:52:44;;;;;;;0.10;0.10;;;;;;;24.81;33.69;97632.31;5038424;28;20045;-74
2023/06/15 09:55:11;;;;;;;0.00;0.00;;;;;;;24.91;33.23;97636.88;5031323;28;20508;-74
2023/06/15 09:57:41;;;;;;;0.00;0.00;;;;;;;24.68;33.00;97635.69;5032197;28;20120;-74
2023/06/15 10:00:11;;;;;;;0.08;0.08;;;;;;;24.46;33.65;97628.72;5028978;28;20049;-75
2023/06/15 10:02:40;;;;;;;0.00;0.00;;;;;;;24.80;33.11;97634.22;5033021;28;20045;-75
2023/06/15 10:05:13;;;;;;;0.00;0.00;;;;;;;24.90;32.49;97637.97;5027147;28;20053;-75
2023/06/15 10:07:46;;;;;;;0.00;0.00;;;;;;;24.81;32.61;97637.78;5030498;28;20460;-74
2023/06/15 10:10:14;;;;;;;0.10;0.10;;;;;;;24.76;32.77;97627.69;5032575;28;20099;-74
2023/06/15 10:12:45;;;;;;;0.00;0.00;;;;;;;24.49;31.78;97636.34;5029277;28;20045;-75
2023/06/15 10:15:16;;;;;;;0.10;0.10;;;;;;;24.40;32.65;97640.75;5031106;28;20417;-74
2023/06/15 10:17:46;;;;;;;0.00;0.00;;;;;;;24.20;33.20;97629.94;5028387;28;20084;-75
2023/06/15 10:20:17;;;;;;;0.05;0.05;;;;;;;23.97;33.50;97636.88;5030878;28;20072;-74
2023/06/15 10:22:50;;;;;;;0.00;0.00;;;;;;;23.50;34.06;97626.41;5026617;28;20096;-74
2023/06/15 10:25:18;;;;;;;;;;;;;;;23.38;35.47;97636.75;5029153;28;20041;-73
2023/06/15 10:27:45;;;;;;;0.00;0.00;;;;;;;23.53;35.71;97634.03;5031168;28;20455;-76
2023/06/15 10:30:18;;;;;;;0.03;0.03;;;;;;;23.34;35.97;97630.25;5027025;28;20124;-75
2023/06/15 10:32:50;;;;;;;0.00;0.00;;;;;;;22.93;37.84;97637.66;5032808;28;20045;-74
2023/06/15 10:35:25;;;;;;;0.00;0.00;;;;;;;23.18;37.99;97639.53;5026207;28;20045;-75
2023/06/15 10:37:57;;;;;;;0.00;0.00;;;;;;;23.15;38.42;97632.75;5032546;28;20041;-74
2023/06/15 10:40:25;;;;;;;;;;;;;;;23.14;38.20;97638.44;5033006;28;20052;-74
2023/06/15 10:42:56;;;;;;;0.10;0.10;;;;;;;22.82;39.28;97641.47;5031683;28;19921;-74
2023/06/15 10:45:28;;;;;;;0.00;0.00;;;;;;;22.87;38.70;97633.28;5028324;28;20053;-74
2023/06/15 10:47:58;;;;;;;0.00;0.00;;;;;;;22.92;38.67;97638.75;5031149;28;20521;-74
2023/06/15 10:50:28;;;;;;;0.10;0.10;;;;;;;22.89;39.51;97639.28;5032549;28;20056;-74
2023/06/15 10:52:56;;;;;;;0.10;0.10;;;;;;;22.86;39.19;97637.09;5031759;28;20050;-75
2023/06/15 10:55:24;;;;;;;0.00;0.00;;;;;;;22.78;41.50;97637.63;5028385;28;20560;-75
2023/06/15 10:58:14;;;;;;;0.00;0.00;;;;;;;22.74;42.58;97640.03;5031494;28;20037;-74
2023/06/15 11:00:42;;;;;;;0.00;0.00;;;;;;;22.72;42.44;97630.53;5028209;28;20045;-75
2023/06/15 11:03:23;;;;;;;0.08;0.08;;;;;;;22.67;41.57;97637.59;5030119;28;20049;-75
2023/06/15 11:06:03;;;;;;;0.00;0.00;;;;;;;22.74;42.30;97631.88;5025825;28;20043;-74
2023/06/15 11:08:31;;;;;;;0.05;0.05;;;;;;;22.67;40.57;97632.16;5031461;28;20079;-75
2023/06/15 11:10:59;;;;;;;0.00;0.00;;;;;;;22.76;40.65;97629.75;5030974;28;20059;-74
2023/06/15 11:13:27;;;;;;;0.00;0.00;;;;;;;22.76;40.10;97632.47;5029042;28;20048;-75
2023/06/15 11:16:11;;;;;;;0.05;0.05;;;;;;;22.89;39.53;97631.09;5030170;28;20505;-76
2023/06/15 11:18:55;;;;;;;0.00;0.00;;;;;;;22.99;38.99;97618.31;5029207;28;20041;-75
2023/06/15 11:21:27;;;;;;;0.10;0.10;;;;;;;23.23;38.20;97628.63;5020855;28;20077;-76
2023/06/15 11:23:57;;;;;;;0.10;0.10;;;;;;;23.44;39.77;97622.06;5026206;28;20045;-75
2023/06/15 11:26:29;;;;;;;0.00;0.00;;;;;;;23.69;37.14;97618.44;5031811;28;20037;-75
2023/06/15 11:28:59;;;;;;;0.00;0.00;;;;;;;23.91;36.67;97621.63;5028300;28;20056;-75
2023/06/15 11:31:28;;;;;;;0.10;0.10;;;;;;;24.15;35.68;97621.78;5030969;28;20124;-74
2023/06/15 11:33:56;;;;;;;0.00;0.00;;;;;;;24.21;36.37;97620.66;5027192;28;20061;-75
2023/06/15 11:36:25;;;;;;;0.10;0.10;;;;;;;24.39;36.39;97616.50;5030186;28;20045;-74
2023/06/15 11:38:54;;;;;;;0.00;0.00;;;;;;;24.38;36.63;97614.88;5028212;28;20052;-76
2023/06/15 11:41:21;;;;;;;0.00;0.00;;;;;;;24.38;35.75;97614.88;5032818;28;20436;-75
2023/06/15 11:43:49;;;;;;;0.00;0.00;;;;;;;24.71;35.48;97613.28;5025969;28;20048;-74